sensor_id;sensor_type;location;lat;lon;timestamp;temperature;humidity
7002;DHT22;3541;53.230;10.518;2023-02-01T00:02:14;5.30;99.90
7002;DHT22;3541;53.230;10.518;2023-02-01T00:04:41;5.30;99.90
7002;DHT22;3541;53.230;10.518;2023-02-01T00:07:08;5.30;99.90
7002;DHT22;3541;53.230;10.518;2023-02-01T00:09:34;5.30;99.90
7002;DHT22;3541;53.230;10.518;2023-02-01T00:12:01;5.30;99.90
7002;DHT22;3541;53.230;10.518;2023-02-01T00:14:29;5.30;99.90
7002;DHT22;3541;53.230;10.518;2023-02-01T00:16:55;5.40;99.90
7002;DHT22;3541;53.230;10.518;2023-02-01T00:19:23;5.40;99.90
7002;DHT22;3541;53.230;10.518;2023-02-01T00:21:50;5.40;99.90
7002;DHT22;3541;53.230;10.518;2023-02-01T00:24:16;5.40;99.90
7002;DHT22;3541;53.230;10.518;2023-02-01T00:26:44;5.40;99.90
7002;DHT22;3541;53.230;10.518;2023-02-01T00:29:14;5.40;99.90
7002;DHT22;3541;53.230;10.518;2023-02-01T00:31:42;5.40;99.90
7002;DHT22;3541;53.230;10.518;2023-02-01T00:34:09;5.50;99.90
7002;DHT22;3541;53.230;10.518;2023-02-01T00:36:39;5.40;99.90
7002;DHT22;3541;53.230;10.518;2023-02-01T00:39:06;5.50;99.90
7002;DHT22;3541;53.230;10.518;2023-02-01T00:41:34;5.40;99.90
7002;DHT22;3541;53.230;10.518;2023-02-01T00:44:01;5.40;99.90
7002;DHT22;3541;53.230;10.518;2023-02-01T00:46:28;5.50;99.90
7002;DHT22;3541;53.230;10.518;2023-02-01T00:48:55;5.50;99.90
7002;DHT22;3541;53.230;10.518;2023-02-01T00:51:25;5.50;99.90
7002;DHT22;3541;53.230;10.518;2023-02-01T00:53:53;5.50;99.90
7002;DHT22;3541;53.230;10.518;2023-02-01T00:56:20;5.50;99.90
7002;DHT22;3541;53.230;10.518;2023-02-01T00:58:47;5.40;99.90
7002;DHT22;3541;53.230;10.518;2023-02-01T01:01:16;5.40;99.90
7002;DHT22;3541;53.230;10.518;2023-02-01T01:03:45;5.50;99.90
7002;DHT22;3541;53.230;10.518;2023-02-01T01:06:14;5.50;99.90
7002;DHT22;3541;53.230;10.518;2023-02-01T01:08:42;5.50;99.90
7002;DHT22;3541;53.230;10.518;2023-02-01T01:11:11;5.50;99.90
7002;DHT22;3541;53.230;10.518;2023-02-01T01:13:38;5.50;99.90
7002;DHT22;3541;53.230;10.518;2023-02-01T01:16:06;5.50;99.90
7002;DHT22;3541;53.230;10.518;2023-02-01T01:18:33;5.50;99.90
7002;DHT22;3541;53.230;10.518;2023-02-01T01:21:00;5.50;99.90
7002;DHT22;3541;53.230;10.518;2023-02-01T01:23:27;5.60;99.90
7002;DHT22;3541;53.230;10.518;2023-02-01T01:25:54;5.60;99.90
7002;DHT22;3541;53.230;10.518;2023-02-01T01:28:22;5.60;99.90
7002;DHT22;3541;53.230;10.518;2023-02-01T01:30:49;5.60;99.90
7002;DHT22;3541;53.230;10.518;2023-02-01T01:33:15;5.60;99.90
7002;DHT22;3541;53.230;10.518;2023-02-01T01:35:42;5.60;99.90
7002;DHT22;3541;53.230;10.518;2023-02-01T01:38:10;5.60;99.90
7002;DHT22;3541;53.230;10.518;2023-02-01T01:40:36;5.70;99.90
7002;DHT22;3541;53.230;10.518;2023-02-01T01:43:03;5.70;99.90
7002;DHT22;3541;53.230;10.518;2023-02-01T01:45:33;5.70;99.90
7002;DHT22;3541;53.230;10.518;2023-02-01T01:48:03;5.70;99.90
7002;DHT22;3541;53.230;10.518;2023-02-01T01:50:33;5.70;99.90
7002;DHT22;3541;53.230;10.518;2023-02-01T01:53:04;5.70;99.90
7002;DHT22;3541;53.230;10.518;2023-02-01T01:55:34;5.70;99.90
7002;DHT22;3541;53.230;10.518;2023-02-01T01:58:04;5.60;99.90
7002;DHT22;3541;53.230;10.518;2023-02-01T02:00:33;5.60;99.90
7002;DHT22;3541;53.230;10.518;2023-02-01T02:03:03;5.60;99.90
7002;DHT22;3541;53.230;10.518;2023-02-01T02:05:32;5.70;99.90
7002;DHT22;3541;53.230;10.518;2023-02-01T02:08:00;5.70;99.90
7002;DHT22;3541;53.230;10.518;2023-02-01T02:10:27;5.70;99.90
7002;DHT22;3541;53.230;10.518;2023-02-01T02:13:08;5.70;99.90
7002;DHT22;3541;53.230;10.518;2023-02-01T02:15:38;5.70;99.90
7002;DHT22;3541;53.230;10.518;2023-02-01T02:18:12;5.60;99.90
7002;DHT22;3541;53.230;10.518;2023-02-01T02:21:12;5.60;99.90
7002;DHT22;3541;53.230;10.518;2023-02-01T02:24:10;5.60;99.90
7002;DHT22;3541;53.230;10.518;2023-02-01T02:27:02;5.60;99.90
7002;DHT22;3541;53.230;10.518;2023-02-01T02:29:55;5.60;99.90
7002;DHT22;3541;53.230;10.518;2023-02-01T02:32:54;5.60;99.90
7002;DHT22;3541;53.230;10.518;2023-02-01T02:35:30;5.60;99.90
7002;DHT22;3541;53.230;10.518;2023-02-01T02:38:05;5.60;99.90
7002;DHT22;3541;53.230;10.518;2023-02-01T02:40:40;5.70;99.90
7002;DHT22;3541;53.230;10.518;2023-02-01T02:43:13;5.70;99.90
7002;DHT22;3541;53.230;10.518;2023-02-01T02:46:05;5.70;99.90
7002;DHT22;3541;53.230;10.518;2023-02-01T02:48:57;5.60;99.90
7002;DHT22;3541;53.230;10.518;2023-02-01T02:51:30;5.60;99.90
7002;DHT22;3541;53.230;10.518;2023-02-01T02:54:19;5.60;99.90
7002;DHT22;3541;53.230;10.518;2023-02-01T02:57:08;5.70;99.90
7002;DHT22;3541;53.230;10.518;2023-02-01T02:59:55;5.60;99.90
7002;DHT22;3541;53.230;10.518;2023-02-01T03:02:41;5.70;99.90
7002;DHT22;3541;53.230;10.518;2023-02-01T03:05:25;5.70;99.90
7002;DHT22;3541;53.230;10.518;2023-02-01T03:08:05;5.70;99.90
7002;DHT22;3541;53.230;10.518;2023-02-01T03:10:43;5.60;99.90
7002;DHT22;3541;53.230;10.518;2023-02-01T03:13:18;5.60;99.90
7002;DHT22;3541;53.230;10.518;2023-02-01T03:15:51;5.60;99.90
7002;DHT22;3541;53.230;10.518;2023-02-01T03:18:26;5.50;99.90
7002;DHT22;3541;53.230;10.518;2023-02-01T03:20:55;5.50;99.90
7002;DHT22;3541;53.230;10.518;2023-02-01T03:23:29;5.50;99.90
7002;DHT22;3541;53.230;10.518;2023-02-01T03:25:58;5.50;99.90
7002;DHT22;3541;53.230;10.518;2023-02-01T03:28:27;5.50;99.90
7002;DHT22;3541;53.230;10.518;2023-02-01T03:30:55;5.50;99.90
7002;DHT22;3541;53.230;10.518;2023-02-01T03:33:25;5.60;99.90
7002;DHT22;3541;53.230;10.518;2023-02-01T03:35:59;5.50;99.90
7002;DHT22;3541;53.230;10.518;2023-02-01T03:38:31;5.50;99.90
7002;DHT22;3541;53.230;10.518;2023-02-01T03:41:03;5.50;99.90
7002;DHT22;3541;53.230;10.518;2023-02-01T03:43:39;5.50;99.90
7002;DHT22;3541;53.230;10.518;2023-02-01T03:46:12;5.50;99.90
7002;DHT22;3541;53.230;10.518;2023-02-01T03:48:41;5.40;99.90
7002;DHT22;3541;53.230;10.518;2023-02-01T03:51:10;5.40;99.90
7002;DHT22;3541;53.230;10.518;2023-02-01T03:53:40;5.30;99.90
7002;DHT22;3541;53.230;10.518;2023-02-01T03:56:08;5.20;99.90
7002;DHT22;3541;53.230;10.518;2023-02-01T03:58:37;5.10;99.90
7002;DHT22;3541;53.230;10.518;2023-02-01T04:01:03;5.20;99.90
7002;DHT22;3541;53.230;10.518;2023-02-01T04:03:30;5.20;99.90
7002;DHT22;3541;53.230;10.518;2023-02-01T04:05:57;5.20;99.90
7002;DHT22;3541;53.230;10.518;2023-02-01T04:08:24;5.00;99.90
7002;DHT22;3541;53.230;10.518;2023-02-01T04:10:52;4.90;99.90
7002;DHT22;3541;53.230;10.518;2023-02-01T04:13:18;4.70;99.90
7002;DHT22;3541;53.230;10.518;2023-02-01T04:15:46;4.70;99.90
7002;DHT22;3541;53.230;10.518;2023-02-01T04:18:15;4.50;99.90
7002;DHT22;3541;53.230;10.518;2023-02-01T04:20:42;4.50;99.90
7002;DHT22;3541;53.230;10.518;2023-02-01T04:23:09;4.40;99.90
7002;DHT22;3541;53.230;10.518;2023-02-01T04:25:35;4.40;99.90
7002;DHT22;3541;53.230;10.518;2023-02-01T04:28:03;4.40;99.90
7002;DHT22;3541;53.230;10.518;2023-02-01T04:30:30;4.40;99.90
7002;DHT22;3541;53.230;10.518;2023-02-01T04:32:56;4.50;99.90
7002;DHT22;3541;53.230;10.518;2023-02-01T04:35:23;4.50;99.90
7002;DHT22;3541;53.230;10.518;2023-02-01T04:37:50;4.50;99.90
7002;DHT22;3541;53.230;10.518;2023-02-01T04:40:16;4.50;99.90
7002;DHT22;3541;53.230;10.518;2023-02-01T04:42:43;4.60;99.90
7002;DHT22;3541;53.230;10.518;2023-02-01T04:45:11;4.50;99.90
7002;DHT22;3541;53.230;10.518;2023-02-01T04:47:38;4.60;99.90
7002;DHT22;3541;53.230;10.518;2023-02-01T04:50:06;4.50;99.90
7002;DHT22;3541;53.230;10.518;2023-02-01T04:52:35;4.60;99.90
7002;DHT22;3541;53.230;10.518;2023-02-01T04:55:02;4.60;99.90
7002;DHT22;3541;53.230;10.518;2023-02-01T04:57:29;4.60;99.90
7002;DHT22;3541;53.230;10.518;2023-02-01T04:59:56;4.50;99.90
7002;DHT22;3541;53.230;10.518;2023-02-01T05:02:24;4.50;99.90
7002;DHT22;3541;53.230;10.518;2023-02-01T05:04:50;4.40;99.90
7002;DHT22;3541;53.230;10.518;2023-02-01T05:07:17;4.40;99.90
7002;DHT22;3541;53.230;10.518;2023-02-01T05:09:44;4.20;99.90
7002;DHT22;3541;53.230;10.518;2023-02-01T05:12:12;4.30;99.90
7002;DHT22;3541;53.230;10.518;2023-02-01T05:14:56;4.20;99.90
7002;DHT22;3541;53.230;10.518;2023-02-01T05:17:24;4.30;99.90
7002;DHT22;3541;53.230;10.518;2023-02-01T05:19:50;4.30;99.90
7002;DHT22;3541;53.230;10.518;2023-02-01T05:22:17;4.30;99.90
7002;DHT22;3541;53.230;10.518;2023-02-01T05:24:44;4.20;99.90
7002;DHT22;3541;53.230;10.518;2023-02-01T05:27:11;4.20;99.90
7002;DHT22;3541;53.230;10.518;2023-02-01T05:29:37;4.10;99.90
7002;DHT22;3541;53.230;10.518;2023-02-01T05:32:04;4.10;99.90
7002;DHT22;3541;53.230;10.518;2023-02-01T05:34:32;4.10;99.90
7002;DHT22;3541;53.230;10.518;2023-02-01T05:36:59;4.10;99.90
7002;DHT22;3541;53.230;10.518;2023-02-01T05:39:25;4.00;99.90
7002;DHT22;3541;53.230;10.518;2023-02-01T05:41:52;4.10;99.90
7002;DHT22;3541;53.230;10.518;2023-02-01T05:44:18;4.20;99.90
7002;DHT22;3541;53.230;10.518;2023-02-01T05:46:45;4.20;99.90
7002;DHT22;3541;53.230;10.518;2023-02-01T05:49:11;4.20;99.90
7002;DHT22;3541;53.230;10.518;2023-02-01T05:51:39;4.10;99.90
7002;DHT22;3541;53.230;10.518;2023-02-01T05:54:07;4.10;99.90
7002;DHT22;3541;53.230;10.518;2023-02-01T05:56:34;3.90;99.90
7002;DHT22;3541;53.230;10.518;2023-02-01T05:59:00;3.90;99.90
7002;DHT22;3541;53.230;10.518;2023-02-01T06:01:27;3.70;99.90
7002;DHT22;3541;53.230;10.518;2023-02-01T06:03:54;3.50;99.90
7002;DHT22;3541;53.230;10.518;2023-02-01T06:06:20;3.60;99.90
7002;DHT22;3541;53.230;10.518;2023-02-01T06:08:48;3.60;99.90
7002;DHT22;3541;53.230;10.518;2023-02-01T06:11:15;3.40;99.90
7002;DHT22;3541;53.230;10.518;2023-02-01T06:13:41;3.50;99.90
7002;DHT22;3541;53.230;10.518;2023-02-01T06:16:08;3.60;99.90
7002;DHT22;3541;53.230;10.518;2023-02-01T06:18:35;3.50;99.90
7002;DHT22;3541;53.230;10.518;2023-02-01T06:21:02;3.50;99.90
7002;DHT22;3541;53.230;10.518;2023-02-01T06:23:29;3.50;99.90
7002;DHT22;3541;53.230;10.518;2023-02-01T06:26:02;3.30;99.90
7002;DHT22;3541;53.230;10.518;2023-02-01T06:28:30;3.20;99.90
7002;DHT22;3541;53.230;10.518;2023-02-01T06:30:57;3.10;99.90
7002;DHT22;3541;53.230;10.518;2023-02-01T06:33:24;3.00;99.90
7002;DHT22;3541;53.230;10.518;2023-02-01T06:35:56;3.00;99.90
7002;DHT22;3541;53.230;10.518;2023-02-01T06:38:23;3.00;99.90
7002;DHT22;3541;53.230;10.518;2023-02-01T06:40:52;3.10;99.90
7002;DHT22;3541;53.230;10.518;2023-02-01T06:43:21;2.90;99.90
7002;DHT22;3541;53.230;10.518;2023-02-01T06:45:47;2.90;99.90
7002;DHT22;3541;53.230;10.518;2023-02-01T06:48:14;3.00;99.90
7002;DHT22;3541;53.230;10.518;2023-02-01T06:50:41;3.00;99.90
7002;DHT22;3541;53.230;10.518;2023-02-01T06:53:07;3.00;99.90
7002;DHT22;3541;53.230;10.518;2023-02-01T06:55:34;3.00;99.90
7002;DHT22;3541;53.230;10.518;2023-02-01T06:58:00;3.10;99.90
7002;DHT22;3541;53.230;10.518;2023-02-01T07:00:28;3.10;99.90
7002;DHT22;3541;53.230;10.518;2023-02-01T07:02:57;3.20;99.90
7002;DHT22;3541;53.230;10.518;2023-02-01T07:05:24;3.10;99.90
7002;DHT22;3541;53.230;10.518;2023-02-01T07:07:51;3.30;99.90
7002;DHT22;3541;53.230;10.518;2023-02-01T07:10:17;3.20;99.90
7002;DHT22;3541;53.230;10.518;2023-02-01T07:12:44;3.20;99.90
7002;DHT22;3541;53.230;10.518;2023-02-01T07:15:11;3.30;99.90
7002;DHT22;3541;53.230;10.518;2023-02-01T07:17:39;3.30;99.90
7002;DHT22;3541;53.230;10.518;2023-02-01T07:20:07;3.30;99.90
7002;DHT22;3541;53.230;10.518;2023-02-01T07:22:33;3.40;99.90
7002;DHT22;3541;53.230;10.518;2023-02-01T07:25:00;3.40;99.90
7002;DHT22;3541;53.230;10.518;2023-02-01T07:27:27;3.40;99.90
7002;DHT22;3541;53.230;10.518;2023-02-01T07:29:53;3.40;99.90
7002;DHT22;3541;53.230;10.518;2023-02-01T07:32:20;3.40;99.90
7002;DHT22;3541;53.230;10.518;2023-02-01T07:34:48;3.40;99.90
7002;DHT22;3541;53.230;10.518;2023-02-01T07:37:15;3.50;99.90
7002;DHT22;3541;53.230;10.518;2023-02-01T07:39:42;3.50;99.90
7002;DHT22;3541;53.230;10.518;2023-02-01T07:42:08;3.60;99.90
7002;DHT22;3541;53.230;10.518;2023-02-01T07:44:35;3.70;99.90
7002;DHT22;3541;53.230;10.518;2023-02-01T07:47:02;3.80;99.90
7002;DHT22;3541;53.230;10.518;2023-02-01T07:49:29;3.80;99.90
7002;DHT22;3541;53.230;10.518;2023-02-01T07:51:56;3.90;99.90
7002;DHT22;3541;53.230;10.518;2023-02-01T07:54:23;4.00;99.90
7002;DHT22;3541;53.230;10.518;2023-02-01T07:56:50;4.00;99.90
7002;DHT22;3541;53.230;10.518;2023-02-01T07:59:16;4.00;99.90
7002;DHT22;3541;53.230;10.518;2023-02-01T08:01:43;4.00;99.90
7002;DHT22;3541;53.230;10.518;2023-02-01T08:04:11;4.10;99.90
7002;DHT22;3541;53.230;10.518;2023-02-01T08:06:38;4.10;99.90
7002;DHT22;3541;53.230;10.518;2023-02-01T08:09:07;4.20;99.90
7002;DHT22;3541;53.230;10.518;2023-02-01T08:11:36;4.20;99.90
7002;DHT22;3541;53.230;10.518;2023-02-01T08:14:03;4.30;99.90
7002;DHT22;3541;53.230;10.518;2023-02-01T08:16:30;4.40;99.90
7002;DHT22;3541;53.230;10.518;2023-02-01T08:18:56;4.40;99.90
7002;DHT22;3541;53.230;10.518;2023-02-01T08:21:26;4.40;99.90
7002;DHT22;3541;53.230;10.518;2023-02-01T08:24:02;4.50;99.90
7002;DHT22;3541;53.230;10.518;2023-02-01T08:26:30;4.50;99.90
7002;DHT22;3541;53.230;10.518;2023-02-01T08:28:58;4.60;99.90
7002;DHT22;3541;53.230;10.518;2023-02-01T08:31:27;4.60;99.90
7002;DHT22;3541;53.230;10.518;2023-02-01T08:33:55;4.70;99.90
7002;DHT22;3541;53.230;10.518;2023-02-01T08:36:23;4.70;99.90
7002;DHT22;3541;53.230;10.518;2023-02-01T08:38:50;4.80;99.90
7002;DHT22;3541;53.230;10.518;2023-02-01T08:41:18;4.80;99.90
7002;DHT22;3541;53.230;10.518;2023-02-01T08:43:47;4.90;99.90
7002;DHT22;3541;53.230;10.518;2023-02-01T08:46:14;4.90;99.90
7002;DHT22;3541;53.230;10.518;2023-02-01T08:48:41;4.90;99.90
7002;DHT22;3541;53.230;10.518;2023-02-01T08:51:11;5.00;99.90
7002;DHT22;3541;53.230;10.518;2023-02-01T08:53:38;5.00;99.90
7002;DHT22;3541;53.230;10.518;2023-02-01T08:56:06;5.00;99.90
7002;DHT22;3541;53.230;10.518;2023-02-01T08:58:34;5.10;99.90
7002;DHT22;3541;53.230;10.518;2023-02-01T09:01:04;5.10;99.90
7002;DHT22;3541;53.230;10.518;2023-02-01T09:03:31;5.10;99.90
7002;DHT22;3541;53.230;10.518;2023-02-01T09:06:00;5.10;99.90
7002;DHT22;3541;53.230;10.518;2023-02-01T09:08:26;5.20;99.90
7002;DHT22;3541;53.230;10.518;2023-02-01T09:10:53;5.20;99.90
7002;DHT22;3541;53.230;10.518;2023-02-01T09:13:20;5.20;99.90
7002;DHT22;3541;53.230;10.518;2023-02-01T09:15:50;5.20;99.90
7002;DHT22;3541;53.230;10.518;2023-02-01T09:18:18;5.20;99.90
7002;DHT22;3541;53.230;10.518;2023-02-01T09:20:45;5.30;99.90
7002;DHT22;3541;53.230;10.518;2023-02-01T09:23:11;5.30;99.90
7002;DHT22;3541;53.230;10.518;2023-02-01T09:25:38;5.30;99.90
7002;DHT22;3541;53.230;10.518;2023-02-01T09:28:05;5.40;99.90
7002;DHT22;3541;53.230;10.518;2023-02-01T09:30:34;5.30;99.90
7002;DHT22;3541;53.230;10.518;2023-02-01T09:33:01;5.40;99.90
7002;DHT22;3541;53.230;10.518;2023-02-01T09:35:29;5.40;99.90
7002;DHT22;3541;53.230;10.518;2023-02-01T09:37:55;5.40;99.90
7002;DHT22;3541;53.230;10.518;2023-02-01T09:40:22;5.40;99.90
7002;DHT22;3541;53.230;10.518;2023-02-01T09:43:04;5.50;99.90
7002;DHT22;3541;53.230;10.518;2023-02-01T09:45:40;5.50;99.90
7002;DHT22;3541;53.230;10.518;2023-02-01T09:48:13;5.60;99.90
7002;DHT22;3541;53.230;10.518;2023-02-01T09:50:45;5.60;99.90
7002;DHT22;3541;53.230;10.518;2023-02-01T09:53:20;5.70;99.90
7002;DHT22;3541;53.230;10.518;2023-02-01T09:55:49;5.70;99.90
7002;DHT22;3541;53.230;10.518;2023-02-01T09:58:21;5.80;99.90
7002;DHT22;3541;53.230;10.518;2023-02-01T10:00:52;5.90;99.90
7002;DHT22;3541;53.230;10.518;2023-02-01T10:03:19;5.90;99.90
7002;DHT22;3541;53.230;10.518;2023-02-01T10:06:13;6.00;99.90
7002;DHT22;3541;53.230;10.518;2023-02-01T10:09:00;6.00;99.90
7002;DHT22;3541;53.230;10.518;2023-02-01T10:11:40;6.00;99.90
7002;DHT22;3541;53.230;10.518;2023-02-01T10:14:26;6.00;99.90
7002;DHT22;3541;53.230;10.518;2023-02-01T10:17:07;6.00;99.90
7002;DHT22;3541;53.230;10.518;2023-02-01T10:19:43;6.00;99.90
7002;DHT22;3541;53.230;10.518;2023-02-01T10:22:20;6.00;99.90
7002;DHT22;3541;53.230;10.518;2023-02-01T10:24:53;5.90;99.90
7002;DHT22;3541;53.230;10.518;2023-02-01T10:27:26;5.90;99.90
7002;DHT22;3541;53.230;10.518;2023-02-01T10:29:59;5.80;99.90
7002;DHT22;3541;53.230;10.518;2023-02-01T10:32:30;5.70;99.90
7002;DHT22;3541;53.230;10.518;2023-02-01T10:34:58;5.60;99.90
7002;DHT22;3541;53.230;10.518;2023-02-01T10:37:29;5.70;99.90
7002;DHT22;3541;53.230;10.518;2023-02-01T10:39:59;5.60;99.90
7002;DHT22;3541;53.230;10.518;2023-02-01T10:42:28;5.60;99.90
7002;DHT22;3541;53.230;10.518;2023-02-01T10:44:57;5.60;99.90
7002;DHT22;3541;53.230;10.518;2023-02-01T10:47:25;5.70;99.90
7002;DHT22;3541;53.230;10.518;2023-02-01T10:49:57;5.70;99.90
7002;DHT22;3541;53.230;10.518;2023-02-01T10:52:36;5.70;99.90
7002;DHT22;3541;53.230;10.518;2023-02-01T10:55:26;5.70;99.90
7002;DHT22;3541;53.230;10.518;2023-02-01T10:57:56;5.70;99.90
7002;DHT22;3541;53.230;10.518;2023-02-01T11:00:24;5.70;99.90
7002;DHT22;3541;53.230;10.518;2023-02-01T11:02:50;5.80;99.90
7002;DHT22;3541;53.230;10.518;2023-02-01T11:05:17;5.80;99.90
7002;DHT22;3541;53.230;10.518;2023-02-01T11:07:49;5.90;99.90
7002;DHT22;3541;53.230;10.518;2023-02-01T11:10:35;6.00;99.90
7002;DHT22;3541;53.230;10.518;2023-02-01T11:13:03;5.90;99.90
7002;DHT22;3541;53.230;10.518;2023-02-01T11:15:30;6.00;99.90
7002;DHT22;3541;53.230;10.518;2023-02-01T11:18:15;6.00;99.90
7002;DHT22;3541;53.230;10.518;2023-02-01T11:20:42;6.00;99.90
7002;DHT22;3541;53.230;10.518;2023-02-01T11:23:15;6.00;99.90
7002;DHT22;3541;53.230;10.518;2023-02-01T11:25:48;6.00;99.90
7002;DHT22;3541;53.230;10.518;2023-02-01T11:28:16;6.00;99.90
7002;DHT22;3541;53.230;10.518;2023-02-01T11:30:44;6.00;99.90
7002;DHT22;3541;53.230;10.518;2023-02-01T11:33:14;6.00;99.90
7002;DHT22;3541;53.230;10.518;2023-02-01T11:35:43;6.10;99.90
7002;DHT22;3541;53.230;10.518;2023-02-01T11:38:21;6.00;99.90
7002;DHT22;3541;53.230;10.518;2023-02-01T11:40:48;6.10;99.90
7002;DHT22;3541;53.230;10.518;2023-02-01T11:43:19;6.00;99.90
7002;DHT22;3541;53.230;10.518;2023-02-01T11:45:56;6.00;99.90
7002;DHT22;3541;53.230;10.518;2023-02-01T11:48:25;6.00;99.90
7002;DHT22;3541;53.230;10.518;2023-02-01T11:51:04;6.00;99.90
7002;DHT22;3541;53.230;10.518;2023-02-01T11:53:46;6.00;99.90
7002;DHT22;3541;53.230;10.518;2023-02-01T11:56:19;6.00;99.90
7002;DHT22;3541;53.230;10.518;2023-02-01T11:59:04;6.00;99.90
7002;DHT22;3541;53.230;10.518;2023-02-01T12:01:54;6.00;99.90
7002;DHT22;3541;53.230;10.518;2023-02-01T12:04:45;5.90;99.90
7002;DHT22;3541;53.230;10.518;2023-02-01T12:07:18;5.90;99.90
7002;DHT22;3541;53.230;10.518;2023-02-01T12:09:59;5.90;99.90
7002;DHT22;3541;53.230;10.518;2023-02-01T12:12:34;5.80;99.90
7002;DHT22;3541;53.230;10.518;2023-02-01T12:15:18;5.80;99.90
7002;DHT22;3541;53.230;10.518;2023-02-01T12:18:12;5.80;99.90
7002;DHT22;3541;53.230;10.518;2023-02-01T12:21:02;5.90;99.90
7002;DHT22;3541;53.230;10.518;2023-02-01T12:23:41;5.90;99.90
7002;DHT22;3541;53.230;10.518;2023-02-01T12:26:27;5.80;99.90
7002;DHT22;3541;53.230;10.518;2023-02-01T12:29:12;5.80;99.90
7002;DHT22;3541;53.230;10.518;2023-02-01T12:31:49;5.80;99.90
7002;DHT22;3541;53.230;10.518;2023-02-01T12:34:40;5.80;99.90
7002;DHT22;3541;53.230;10.518;2023-02-01T12:37:16;5.60;99.90
7002;DHT22;3541;53.230;10.518;2023-02-01T12:39:52;5.40;99.90
7002;DHT22;3541;53.230;10.518;2023-02-01T12:42:27;5.30;99.90
7002;DHT22;3541;53.230;10.518;2023-02-01T12:44:59;5.20;99.90
7002;DHT22;3541;53.230;10.518;2023-02-01T12:47:32;5.10;99.90
7002;DHT22;3541;53.230;10.518;2023-02-01T12:50:02;5.00;99.90
7002;DHT22;3541;53.230;10.518;2023-02-01T12:52:34;5.00;99.90
7002;DHT22;3541;53.230;10.518;2023-02-01T12:55:07;4.90;99.90
7002;DHT22;3541;53.230;10.518;2023-02-01T12:57:40;4.80;99.90
7002;DHT22;3541;53.230;10.518;2023-02-01T13:00:17;4.70;99.90
7002;DHT22;3541;53.230;10.518;2023-02-01T13:02:52;4.80;99.90
7002;DHT22;3541;53.230;10.518;2023-02-01T13:05:24;4.70;99.90
7002;DHT22;3541;53.230;10.518;2023-02-01T13:07:55;4.70;99.90
7002;DHT22;3541;53.230;10.518;2023-02-01T13:10:28;4.70;99.90
7002;DHT22;3541;53.230;10.518;2023-02-01T13:13:04;4.60;99.90
7002;DHT22;3541;53.230;10.518;2023-02-01T13:15:39;4.50;99.90
7002;DHT22;3541;53.230;10.518;2023-02-01T13:18:14;4.60;99.90
7002;DHT22;3541;53.230;10.518;2023-02-01T13:20:48;4.60;99.90
7002;DHT22;3541;53.230;10.518;2023-02-01T13:23:23;4.40;99.90
7002;DHT22;3541;53.230;10.518;2023-02-01T13:25:52;4.10;99.90
7002;DHT22;3541;53.230;10.518;2023-02-01T13:28:25;4.00;99.90
7002;DHT22;3541;53.230;10.518;2023-02-01T13:31:21;4.10;99.90
7002;DHT22;3541;53.230;10.518;2023-02-01T13:34:04;4.00;99.90
7002;DHT22;3541;53.230;10.518;2023-02-01T13:36:58;4.10;99.90
7002;DHT22;3541;53.230;10.518;2023-02-01T13:39:41;4.10;99.90
7002;DHT22;3541;53.230;10.518;2023-02-01T13:42:16;4.20;99.90
7002;DHT22;3541;53.230;10.518;2023-02-01T13:44:46;4.10;99.90
7002;DHT22;3541;53.230;10.518;2023-02-01T13:47:22;4.20;99.90
7002;DHT22;3541;53.230;10.518;2023-02-01T13:49:50;4.10;99.90
7002;DHT22;3541;53.230;10.518;2023-02-01T13:52:27;4.10;99.90
7002;DHT22;3541;53.230;10.518;2023-02-01T13:55:03;4.00;99.90
7002;DHT22;3541;53.230;10.518;2023-02-01T13:57:41;4.10;99.90
7002;DHT22;3541;53.230;10.518;2023-02-01T14:00:23;4.20;99.90
7002;DHT22;3541;53.230;10.518;2023-02-01T14:03:10;4.40;99.90
7002;DHT22;3541;53.230;10.518;2023-02-01T14:06:03;4.40;99.90
7002;DHT22;3541;53.230;10.518;2023-02-01T14:08:39;4.30;99.90
7002;DHT22;3541;53.230;10.518;2023-02-01T14:11:07;4.50;99.90
7002;DHT22;3541;53.230;10.518;2023-02-01T14:13:54;4.60;99.90
7002;DHT22;3541;53.230;10.518;2023-02-01T14:16:21;4.60;99.90
7002;DHT22;3541;53.230;10.518;2023-02-01T14:19:00;4.80;99.90
7002;DHT22;3541;53.230;10.518;2023-02-01T14:21:30;4.80;99.90
7002;DHT22;3541;53.230;10.518;2023-02-01T14:24:00;4.70;99.90
7002;DHT22;3541;53.230;10.518;2023-02-01T14:26:41;4.60;99.90
7002;DHT22;3541;53.230;10.518;2023-02-01T14:29:25;4.50;99.90
7002;DHT22;3541;53.230;10.518;2023-02-01T14:31:58;4.50;99.90
7002;DHT22;3541;53.230;10.518;2023-02-01T14:34:34;4.60;99.90
7002;DHT22;3541;53.230;10.518;2023-02-01T14:37:05;4.50;99.90
7002;DHT22;3541;53.230;10.518;2023-02-01T14:39:36;4.40;99.90
7002;DHT22;3541;53.230;10.518;2023-02-01T14:42:14;4.50;99.90
7002;DHT22;3541;53.230;10.518;2023-02-01T14:44:43;4.60;99.90
7002;DHT22;3541;53.230;10.518;2023-02-01T14:47:31;4.60;99.90
7002;DHT22;3541;53.230;10.518;2023-02-01T14:53:03;4.50;99.90
7002;DHT22;3541;53.230;10.518;2023-02-01T14:55:34;4.40;99.90
7002;DHT22;3541;53.230;10.518;2023-02-01T14:58:04;4.40;99.90
7002;DHT22;3541;53.230;10.518;2023-02-01T15:00:33;4.50;99.90
7002;DHT22;3541;53.230;10.518;2023-02-01T15:03:19;4.50;99.90
7002;DHT22;3541;53.230;10.518;2023-02-01T15:05:54;4.50;99.90
7002;DHT22;3541;53.230;10.518;2023-02-01T15:08:25;4.50;99.90
7002;DHT22;3541;53.230;10.518;2023-02-01T15:10:54;4.50;99.90
7002;DHT22;3541;53.230;10.518;2023-02-01T15:13:24;4.50;99.90
7002;DHT22;3541;53.230;10.518;2023-02-01T15:16:04;4.60;99.90
7002;DHT22;3541;53.230;10.518;2023-02-01T15:18:31;4.50;99.90
7002;DHT22;3541;53.230;10.518;2023-02-01T15:20:59;4.40;99.90
7002;DHT22;3541;53.230;10.518;2023-02-01T15:23:26;4.40;99.90
7002;DHT22;3541;53.230;10.518;2023-02-01T15:25:53;4.30;99.90
7002;DHT22;3541;53.230;10.518;2023-02-01T15:28:20;4.30;99.90
7002;DHT22;3541;53.230;10.518;2023-02-01T15:30:58;4.20;99.90
7002;DHT22;3541;53.230;10.518;2023-02-01T15:33:27;4.30;99.90
7002;DHT22;3541;53.230;10.518;2023-02-01T15:35:55;4.30;99.90
7002;DHT22;3541;53.230;10.518;2023-02-01T15:38:33;4.20;99.90
7002;DHT22;3541;53.230;10.518;2023-02-01T15:41:06;4.30;99.90
7002;DHT22;3541;53.230;10.518;2023-02-01T15:43:36;4.40;99.90
7002;DHT22;3541;53.230;10.518;2023-02-01T15:46:07;4.40;99.90
7002;DHT22;3541;53.230;10.518;2023-02-01T15:48:40;4.40;99.90
7002;DHT22;3541;53.230;10.518;2023-02-01T15:51:16;4.30;99.90
7002;DHT22;3541;53.230;10.518;2023-02-01T15:53:45;4.40;99.90
7002;DHT22;3541;53.230;10.518;2023-02-01T15:56:13;4.30;99.90
7002;DHT22;3541;53.230;10.518;2023-02-01T15:58:42;4.40;99.90
7002;DHT22;3541;53.230;10.518;2023-02-01T16:01:11;4.40;99.90
7002;DHT22;3541;53.230;10.518;2023-02-01T16:03:42;4.40;99.90
7002;DHT22;3541;53.230;10.518;2023-02-01T16:06:12;4.30;99.90
7002;DHT22;3541;53.230;10.518;2023-02-01T16:08:54;4.30;99.90
7002;DHT22;3541;53.230;10.518;2023-02-01T16:11:24;4.30;99.90
7002;DHT22;3541;53.230;10.518;2023-02-01T16:13:51;4.30;99.90
7002;DHT22;3541;53.230;10.518;2023-02-01T16:16:17;4.20;99.90
7002;DHT22;3541;53.230;10.518;2023-02-01T16:18:45;4.20;99.90
7002;DHT22;3541;53.230;10.518;2023-02-01T16:21:12;4.30;99.90
7002;DHT22;3541;53.230;10.518;2023-02-01T16:23:39;4.40;99.90
7002;DHT22;3541;53.230;10.518;2023-02-01T16:26:05;4.50;99.90
7002;DHT22;3541;53.230;10.518;2023-02-01T16:28:32;4.50;99.90
7002;DHT22;3541;53.230;10.518;2023-02-01T16:31:00;4.50;99.90
7002;DHT22;3541;53.230;10.518;2023-02-01T16:33:27;4.60;99.90